Time;durP1;ratioP1;P1;durP2;ratioP2;P2;SDS_P1;SDS_P2;PMS_P1;PMS_P2;Temp;Humidity;BMP_temperature;BMP_pressure;BME280_temperature;BME280_humidity;BME280_pressure;Samples;Min_cycle;Max_cycle;Signal;HPM_P1;HPM_P2
2021/07/09 00:01:07;;;;;;;26.90;23.90;;;22.10;99.90;21.80;96701.00;;;;5077761;28;20212;-65
2021/07/09 00:03:56;;;;;;;27.70;24.97;;;22.10;99.90;21.80;96701.00;;;;5087285;28;20205;-65
2021/07/09 00:06:45;;;;;;;27.87;25.23;;;22.10;99.90;21.90;96692.00;;;;5087847;28;20580;-64
2021/07/09 00:09:34;;;;;;;25.03;22.53;;;22.10;99.90;21.70;96719.00;;;;5088201;28;20211;-64
2021/07/09 00:12:23;;;;;;;25.47;22.90;;;22.10;99.90;21.70;96698.00;;;;5087107;28;20604;-63
2021/07/09 00:15:13;;;;;;;25.07;22.70;;;22.10;99.90;21.80;96704.00;;;;5086873;28;20211;-62
2021/07/09 00:18:03;;;;;;;24.57;22.23;;;22.00;99.90;21.60;96699.00;;;;5086757;28;20206;-63
2021/07/09 00:20:52;;;;;;;27.13;24.33;;;22.00;99.90;21.70;96698.00;;;;5076522;28;20215;-63
2021/07/09 00:23:42;;;;;;;26.50;23.80;;;22.00;99.90;21.70;96690.00;;;;5086884;28;20238;-64
2021/07/09 00:26:32;;;;;;;27.83;25.23;;;22.00;99.90;21.70;96701.00;;;;5087678;28;20658;-64
2021/07/09 00:29:21;;;;;;;25.80;23.20;;;22.00;99.90;21.70;96709.00;;;;5081616;28;20206;-64
2021/07/09 00:32:10;;;;;;;24.50;22.20;;;22.00;99.90;21.60;96703.00;;;;5081940;28;20219;-64
2021/07/09 00:35:00;;;;;;;25.40;22.80;;;21.90;99.90;21.50;96709.00;;;;5087777;28;20608;-64
2021/07/09 00:37:49;;;;;;;24.20;21.80;;;21.90;99.90;21.40;96699.00;;;;5087410;28;20206;-64
2021/07/09 00:40:38;;;;;;;24.73;22.27;;;21.80;99.90;21.40;96691.00;;;;5086238;28;20207;-63
2021/07/09 00:43:27;;;;;;;23.33;20.97;;;21.80;99.90;21.40;96690.00;;;;5086645;28;20231;-64
2021/07/09 00:46:16;;;;;;;22.13;19.87;;;21.70;99.90;21.40;96687.00;;;;5075345;28;20674;-64
2021/07/09 00:49:06;;;;;;;21.23;19.23;;;21.70;99.90;21.30;96676.00;;;;5087695;28;20203;-62
2021/07/09 00:51:57;;;;;;;22.67;20.37;;;21.70;99.90;21.30;96669.00;;;;5086759;28;20638;-62
2021/07/09 00:54:46;;;;;;;17.40;15.77;;;21.60;99.90;21.20;96666.00;;;;5087357;28;20587;-64
2021/07/09 00:57:39;;;;;;;20.53;18.53;;;21.60;99.90;21.10;96670.00;;;;5086235;28;20579;-64
2021/07/09 01:00:29;;;;;;;17.10;15.43;;;21.50;99.90;21.00;96666.00;;;;5085782;28;20557;-63
2021/07/09 01:03:18;;;;;;;16.87;15.23;;;21.50;99.90;21.10;96661.00;;;;5086502;28;20234;-63
2021/07/09 01:06:07;;;;;;;14.70;13.40;;;21.40;99.90;21.00;96667.00;;;;5075649;28;20203;-64
2021/07/09 01:08:57;;;;;;;14.37;12.97;;;21.40;99.90;21.00;96651.00;;;;5077558;28;20207;-64
2021/07/09 01:11:50;;;;;;;16.13;13.37;;;21.30;99.90;20.90;96656.00;;;;5084826;28;20763;-64
2021/07/09 01:14:39;;;;;;;13.47;12.17;;;21.30;99.90;20.80;96645.00;;;;5086370;28;20579;-63
2021/07/09 01:17:28;;;;;;;13.77;10.90;;;21.20;99.90;20.80;96646.00;;;;5086156;28;21104;-64
2021/07/09 01:20:19;;;;;;;17.40;15.67;;;21.20;99.90;20.50;96654.00;;;;5098053;28;20210;-64
2021/07/09 01:23:08;;;;;;;18.13;16.33;;;21.10;99.90;20.60;96648.00;;;;5105538;28;20241;-62
2021/07/09 01:25:59;;;;;;;18.77;16.77;;;21.00;99.90;20.60;96630.00;;;;5092540;28;20214;-64
2021/07/09 01:28:48;;;;;;;13.17;11.90;;;21.00;99.90;20.50;96631.00;;;;5104369;28;20206;-64
2021/07/09 01:31:38;;;;;;;11.43;10.27;;;21.00;99.90;20.50;96620.00;;;;5097058;28;20230;-64
2021/07/09 01:34:27;;;;;;;13.47;12.27;;;20.90;99.90;20.50;96617.00;;;;5106268;28;20206;-64
2021/07/09 01:37:18;;;;;;;15.07;13.47;;;20.90;99.90;20.60;96615.00;;;;5105025;28;20198;-64
2021/07/09 01:40:11;;;;;;;17.50;15.40;;;20.80;99.90;20.60;96617.00;;;;5105246;28;20214;-64
2021/07/09 01:43:01;;;;;;;18.33;16.60;;;20.80;99.90;20.40;96617.00;;;;5072876;28;20702;-64
2021/07/09 01:45:51;;;;;;;18.93;17.03;;;20.80;99.90;20.40;96623.00;;;;5085656;28;20214;-63
2021/07/09 01:48:40;;;;;;;14.27;12.13;;;20.80;99.90;20.30;96622.00;;;;5105601;28;20275;-64
2021/07/09 01:51:29;;;;;;;12.33;11.13;;;20.70;99.90;20.40;96622.00;;;;5105147;28;20226;-63
2021/07/09 01:54:18;;;;;;;13.40;12.20;;;20.70;99.90;20.40;96618.00;;;;5099729;28;20202;-63
2021/07/09 01:57:07;;;;;;;13.47;11.27;;;20.70;99.90;20.40;96612.00;;;;5103745;28;20203;-61
2021/07/09 02:00:01;;;;;;;18.70;14.00;;;20.70;99.90;20.40;96617.00;;;;5105542;28;20213;-63
2021/07/09 02:02:51;;;;;;;14.53;13.17;;;20.70;99.90;20.30;96618.00;;;;5105422;28;20222;-63
2021/07/09 02:05:40;;;;;;;15.87;14.17;;;20.60;99.90;20.30;96618.00;;;;5106510;28;20199;-63
2021/07/09 02:08:29;;;;;;;18.57;15.23;;;20.60;99.90;20.10;96612.00;;;;5105720;28;20210;-63
2021/07/09 02:11:18;;;;;;;20.57;18.53;;;20.60;99.90;20.20;96620.00;;;;5085338;28;20247;-63
2021/07/09 02:14:07;;;;;;;19.80;17.80;;;20.50;99.90;20.10;96612.00;;;;5074645;28;20574;-63
2021/07/09 02:16:57;;;;;;;18.30;16.20;;;20.50;99.90;20.20;96611.00;;;;5085330;28;20211;-62
2021/07/09 02:19:48;;;;;;;15.77;14.27;;;20.50;99.90;20.10;96624.00;;;;5084944;28;20206;-63
2021/07/09 02:22:37;;;;;;;22.73;17.83;;;20.50;99.90;20.20;96625.00;;;;5084764;28;20242;-63
2021/07/09 02:25:27;;;;;;;18.07;16.17;;;20.50;99.90;20.10;96625.00;;;;5071434;28;20195;-62
2021/07/09 02:28:16;;;;;;;18.40;16.53;;;20.50;99.90;20.10;96618.00;;;;5085278;28;20237;-63
2021/07/09 02:31:04;;;;;;;19.70;17.47;;;20.40;99.90;20.10;96608.00;;;;5071158;28;20583;-63
2021/07/09 02:33:55;;;;;;;20.17;18.07;;;20.40;99.90;20.10;96607.00;;;;5084807;28;20221;-61
2021/07/09 02:36:43;;;;;;;22.33;20.07;;;20.40;99.90;20.00;96619.00;;;;5105094;28;20211;-63
2021/07/09 02:39:33;;;;;;;22.57;20.23;;;20.40;99.90;19.90;96615.00;;;;5104123;28;20661;-64
2021/07/09 02:42:22;;;;;;;20.57;18.57;;;20.30;99.90;19.80;96618.00;;;;5104626;28;20225;-62
2021/07/09 02:45:12;;;;;;;21.43;19.10;;;20.30;99.90;19.90;96607.00;;;;5105367;28;20693;-63
2021/07/09 02:48:01;;;;;;;18.20;16.40;;;20.30;99.90;19.90;96606.00;;;;5105943;28;20199;-63
2021/07/09 02:50:51;;;;;;;17.90;16.20;;;20.20;99.90;20.00;96604.00;;;;5104589;28;20206;-64
2021/07/09 02:53:40;;;;;;;19.10;16.33;;;20.20;99.90;20.10;96614.00;;;;5106336;28;20198;-63
2021/07/09 02:56:28;;;;;;;20.90;18.93;;;20.20;99.90;20.10;96611.00;;;;5105054;28;20666;-62
2021/07/09 02:59:17;;;;;;;17.93;16.23;;;20.30;99.90;20.10;96608.00;;;;5094596;28;20207;-63
2021/07/09 03:02:06;;;;;;;17.50;15.80;;;20.30;99.90;20.20;96619.00;;;;5105101;28;20606;-63
2021/07/09 03:04:55;;;;;;;19.67;17.77;;;20.30;99.90;20.10;96620.00;;;;5105031;28;20229;-64
2021/07/09 03:07:46;;;;;;;20.97;18.97;;;20.40;99.90;20.00;96615.00;;;;5105834;28;20229;-64
2021/07/09 03:10:35;;;;;;;20.83;18.67;;;20.40;99.90;20.10;96618.00;;;;5108219;28;20199;-64
2021/07/09 03:13:24;;;;;;;19.90;18.10;;;20.30;99.90;20.10;96612.00;;;;5108329;28;20229;-62
2021/07/09 03:16:13;;;;;;;19.23;17.33;;;20.30;99.90;19.90;96614.00;;;;5109642;28;20202;-63
2021/07/09 03:19:02;;;;;;;21.53;18.47;;;20.30;99.90;19.90;96621.00;;;;5108483;28;20206;-64
2021/07/09 03:21:51;;;;;;;20.27;18.27;;;20.30;99.90;20.00;96621.00;;;;5108731;28;20225;-62
2021/07/09 03:24:41;;;;;;;19.43;17.57;;;20.20;99.90;20.10;96622.00;;;;5109347;28;20222;-63
2021/07/09 03:27:30;;;;;;;20.80;18.40;;;20.30;99.90;20.00;96631.00;;;;5108049;28;20573;-63
2021/07/09 03:30:20;;;;;;;20.60;16.53;;;20.30;99.90;20.00;96620.00;;;;5107685;28;20209;-64
2021/07/09 03:33:09;;;;;;;16.70;15.10;;;20.30;99.90;19.90;96626.00;;;;5106011;28;20222;-62
2021/07/09 03:35:58;;;;;;;17.73;15.97;;;20.20;99.90;19.90;96624.00;;;;5107512;28;20565;-62
2021/07/09 03:38:47;;;;;;;18.70;16.90;;;20.20;99.90;19.90;96624.00;;;;5108204;28;20547;-63
2021/07/09 03:41:37;;;;;;;18.47;16.47;;;20.20;99.90;20.00;96624.00;;;;5106506;28;20225;-63
2021/07/09 03:44:26;;;;;;;19.00;17.00;;;20.20;99.90;20.10;96625.00;;;;5108291;28;20218;-62
2021/07/09 03:47:15;;;;;;;17.67;15.87;;;20.20;99.90;20.00;96629.00;;;;5106249;28;20570;-64
2021/07/09 03:50:06;;;;;;;16.53;14.93;;;20.30;99.90;19.80;96632.00;;;;5106413;28;20697;-63
2021/07/09 03:52:55;;;;;;;16.13;14.40;;;20.20;99.90;19.80;96622.00;;;;5094708;28;20230;-64
2021/07/09 03:55:43;;;;;;;16.67;15.10;;;20.20;99.90;20.00;96630.00;;;;5108089;28;20217;-64
2021/07/09 03:58:35;;;;;;;16.37;14.80;;;20.20;99.90;19.80;96627.00;;;;5108099;28;20199;-63
2021/07/09 04:01:24;;;;;;;17.47;15.87;;;20.20;99.90;19.80;96627.00;;;;5108443;28;20211;-63
2021/07/09 04:04:13;;;;;;;16.90;15.10;;;20.20;99.90;19.70;96627.00;;;;5109529;28;20222;-62
2021/07/09 04:07:02;;;;;;;15.97;14.30;;;20.10;99.90;19.70;96625.00;;;;5109266;28;20206;-62
2021/07/09 04:09:51;;;;;;;19.83;14.67;;;20.10;99.90;19.90;96626.00;;;;5106760;28;20208;-60
2021/07/09 04:12:40;;;;;;;16.87;14.13;;;20.10;99.90;20.00;96627.00;;;;5097261;28;20227;-62
2021/07/09 04:15:30;;;;;;;15.90;14.23;;;20.20;99.90;20.00;96624.00;;;;5107171;28;20212;-63
2021/07/09 04:18:19;;;;;;;16.30;14.83;;;20.20;99.90;19.80;96624.00;;;;5108034;28;21122;-62
2021/07/09 04:21:08;;;;;;;17.53;14.37;;;20.20;99.90;19.80;96625.00;;;;5106337;28;20569;-62
2021/07/09 04:23:57;;;;;;;16.53;14.83;;;20.20;99.90;19.70;96626.00;;;;5106972;28;20209;-64
2021/07/09 04:26:45;;;;;;;15.97;14.30;;;21.10;99.90;19.60;96630.00;;;;5106687;28;20585;-63
2021/07/09 04:29:34;;;;;;;15.60;14.00;;;20.10;99.90;19.60;96639.00;;;;5100618;28;20203;-63
2021/07/09 04:32:24;;;;;;;16.63;14.47;;;20.00;99.90;19.60;96655.00;;;;5103581;28;20222;-64
2021/07/09 04:35:14;;;;;;;15.80;14.07;;;20.00;99.90;19.40;96645.00;;;;5106520;28;20247;-63
2021/07/09 04:38:03;;;;;;;15.87;13.53;;;19.90;99.90;19.50;96653.00;;;;5106551;28;20577;-65
2021/07/09 04:40:52;;;;;;;16.57;14.53;;;19.90;99.90;19.50;96652.00;;;;5105648;28;20753;-61
2021/07/09 04:43:41;;;;;;;16.80;15.00;;;19.90;99.90;19.50;96651.00;;;;5106135;28;20719;-64
2021/07/09 04:46:30;;;;;;;18.80;14.00;;;19.90;99.90;19.50;96657.00;;;;5104258;28;20207;-64
2021/07/09 04:49:21;;;;;;;16.93;15.13;;;19.90;99.90;19.70;96664.00;;;;5104772;28;20218;-61
2021/07/09 04:52:10;;;;;;;16.70;15.10;;;19.90;99.90;19.90;96660.00;;;;5105272;28;20226;-63
2021/07/09 04:55:00;;;;;;;17.50;15.13;;;20.00;99.90;19.80;96663.00;;;;5104650;28;20206;-64
2021/07/09 04:57:49;;;;;;;15.10;13.53;;;20.00;99.90;19.90;96658.00;;;;5105056;28;20221;-63
2021/07/09 05:00:37;;;;;;;14.27;12.90;;;20.10;99.90;19.90;96645.00;;;;5106130;28;20202;-64
2021/07/09 05:03:26;;;;;;;16.47;14.87;;;20.10;99.90;20.00;96653.00;;;;5106129;28;20230;-64
2021/07/09 05:06:17;;;;;;;15.83;13.90;;;20.20;99.90;20.00;96662.00;;;;5106831;28;20222;-64
2021/07/09 05:09:07;;;;;;;16.00;13.47;;;20.30;99.90;20.20;96657.00;;;;5106144;28;20205;-64
2021/07/09 05:11:56;;;;;;;17.80;14.43;;;20.30;99.90;20.10;96657.00;;;;5106697;28;20241;-64
2021/07/09 05:14:46;;;;;;;14.33;12.93;;;20.40;99.90;20.30;96659.00;;;;5105177;28;20212;-62
2021/07/09 05:17:35;;;;;;;16.40;13.00;;;20.40;99.90;20.40;96663.00;;;;5096711;28;20191;-62
2021/07/09 05:20:24;;;;;;;16.13;12.67;;;20.60;99.90;20.50;96662.00;;;;5092338;28;20347;-63
2021/07/09 05:23:15;;;;;;;14.70;13.40;;;20.70;99.90;20.60;96664.00;;;;5104977;28;20238;-63
2021/07/09 05:26:04;;;;;;;13.07;11.87;;;20.80;99.90;20.60;96665.00;;;;5105279;28;20233;-63
2021/07/09 05:28:53;;;;;;;15.73;14.13;;;20.80;99.90;20.60;96670.00;;;;5105392;28;20205;-62
2021/07/09 05:31:42;;;;;;;14.07;12.77;;;20.90;99.90;20.70;96663.00;;;;5094435;28;20233;-63
2021/07/09 05:34:32;;;;;;;17.70;15.03;;;20.90;99.90;20.90;96666.00;;;;5105439;28;20247;-63
2021/07/09 05:37:21;;;;;;;16.23;14.73;;;21.00;99.90;21.00;96668.00;;;;5105071;28;20666;-64
2021/07/09 05:40:13;;;;;;;16.27;14.67;;;21.10;99.90;20.90;96664.00;;;;5105532;28;20209;-64
2021/07/09 05:43:03;;;;;;;15.30;13.63;;;21.10;99.90;21.00;96664.00;;;;5104480;28;20333;-64
2021/07/09 05:45:52;;;;;;;19.33;14.43;;;21.20;99.90;21.00;96663.00;;;;5104959;28;20248;-62
2021/07/09 05:48:41;;;;;;;16.43;14.83;;;21.20;99.90;21.10;96663.00;;;;5106148;28;20218;-64
2021/07/09 05:51:30;;;;;;;17.63;15.93;;;21.30;99.90;21.20;96659.00;;;;5104798;28;20219;-64
2021/07/09 05:54:18;;;;;;;17.60;15.40;;;21.30;99.90;21.30;96667.00;;;;5106458;28;20285;-64
2021/07/09 05:57:09;;;;;;;16.57;14.87;;;21.40;99.90;21.50;96660.00;;;;5104665;28;20198;-64
2021/07/09 05:59:59;;;;;;;17.63;14.90;;;21.50;99.90;21.70;96658.00;;;;5105241;28;20779;-65
2021/07/09 06:02:47;;;;;;;17.73;15.70;;;21.70;99.90;21.90;96660.00;;;;5105560;28;20227;-63
2021/07/09 06:05:37;;;;;;;18.37;16.47;;;21.80;99.90;21.80;96662.00;;;;5104859;28;20688;-64
2021/07/09 06:08:26;;;;;;;17.53;15.87;;;21.90;99.90;21.90;96665.00;;;;5105225;28;20206;-61
2021/07/09 06:11:15;;;;;;;16.73;15.03;;;22.00;99.90;21.90;96661.00;;;;5093665;28;20586;-64
2021/07/09 06:14:06;;;;;;;16.07;14.50;;;22.00;99.90;22.20;96660.00;;;;5104074;28;20199;-64
2021/07/09 06:16:55;;;;;;;19.00;14.70;;;22.20;99.90;22.30;96673.00;;;;5103916;28;20234;-64
2021/07/09 06:19:44;;;;;;;14.67;13.10;;;22.30;99.90;22.40;96651.00;;;;5106000;28;20218;-64
2021/07/09 06:22:33;;;;;;;15.53;13.93;;;22.40;99.90;22.80;96653.00;;;;5104870;28;20237;-63
2021/07/09 06:25:22;;;;;;;14.90;13.40;;;22.60;99.90;23.10;96658.00;;;;5105498;28;20264;-64
2021/07/09 06:28:12;;;;;;;16.00;12.67;;;22.80;99.90;23.30;96657.00;;;;5105874;28;20229;-64
2021/07/09 06:31:02;;;;;;;13.60;12.23;;;23.00;99.90;23.40;96652.00;;;;5102298;28;20221;-64
2021/07/09 06:33:53;;;;;;;17.70;11.80;;;23.20;99.90;23.40;96653.00;;;;5102663;28;20199;-64
2021/07/09 06:36:42;;;;;;;13.93;11.40;;;23.40;99.90;23.60;96658.00;;;;5099696;28;20199;-62
2021/07/09 06:39:31;;;;;;;12.80;10.97;;;23.50;99.90;23.70;96654.00;;;;5103949;28;20207;-63
2021/07/09 06:42:19;;;;;;;11.57;10.47;;;23.60;99.90;23.80;96646.00;;;;5104220;28;20970;-64
2021/07/09 06:45:10;;;;;;;13.30;12.00;;;23.70;99.90;24.00;96647.00;;;;5108637;28;20478;-64
2021/07/09 06:48:02;;;;;;;12.43;11.13;;;23.80;99.90;24.10;96650.00;;;;5106885;28;20711;-63
2021/07/09 06:50:51;;;;;;;15.10;10.17;;;24.00;99.90;24.20;96645.00;;;;5105283;28;20210;-65
2021/07/09 06:53:40;;;;;;;11.83;10.57;;;24.10;99.90;24.40;96639.00;;;;5106601;28;20209;-63
2021/07/09 06:56:29;;;;;;;14.40;10.67;;;24.20;99.90;24.60;96641.00;;;;5107369;28;20190;-64
2021/07/09 06:59:18;;;;;;;13.80;10.97;;;24.40;99.90;24.70;96646.00;;;;5107396;28;20199;-64
2021/07/09 07:02:08;;;;;;;13.90;9.90;;;24.50;99.90;24.90;96649.00;;;;5105275;28;20226;-64
2021/07/09 07:04:58;;;;;;;15.47;9.93;;;24.70;99.90;24.90;96638.00;;;;5105475;28;20213;-64
2021/07/09 07:07:47;;;;;;;10.83;8.60;;;24.80;99.90;25.10;96643.00;;;;5106273;28;20192;-64
2021/07/09 07:10:36;;;;;;;10.43;9.40;;;24.90;99.90;25.30;96643.00;;;;5106792;28;20200;-63
2021/07/09 07:13:26;;;;;;;11.10;10.00;;;25.10;99.90;25.40;96634.00;;;;5106790;28;20236;-65
2021/07/09 07:16:15;;;;;;;11.77;9.20;;;25.20;99.90;25.50;96637.00;;;;5104676;28;20189;-61
2021/07/09 07:19:04;;;;;;;10.90;9.67;;;25.30;99.90;25.70;96630.00;;;;5105078;28;20276;-64
2021/07/09 07:21:55;;;;;;;12.17;10.50;;;25.50;99.90;25.80;96638.00;;;;5105599;28;20219;-63
2021/07/09 07:24:44;;;;;;;10.83;9.70;;;25.60;99.90;25.80;96630.00;;;;5107587;28;20216;-64
2021/07/09 07:27:33;;;;;;;12.37;11.27;;;25.70;99.90;26.00;96640.00;;;;5099099;28;20296;-64
2021/07/09 07:30:22;;;;;;;11.10;10.10;;;25.80;99.90;26.20;96638.00;;;;5106550;28;20654;-64
2021/07/09 07:33:11;;;;;;;12.10;10.30;;;25.90;99.90;26.30;96627.00;;;;5105279;28;20227;-63
2021/07/09 07:36:00;;;;;;;12.03;10.90;;;26.10;99.90;26.50;96632.00;;;;5086058;28;20211;-64
2021/07/09 07:38:50;;;;;;;14.67;11.70;;;26.20;99.90;26.30;96633.00;;;;5089220;28;20218;-63
2021/07/09 07:41:40;;;;;;;13.17;11.63;;;26.30;99.90;26.60;96636.00;;;;5107825;28;20253;-63
2021/07/09 07:44:28;;;;;;;12.97;11.73;;;26.40;99.90;26.40;96634.00;;;;5108296;28;20250;-64
2021/07/09 07:47:21;;;;;;;13.57;11.23;;;26.50;99.90;26.50;96645.00;;;;5107653;28;20723;-64
2021/07/09 07:50:12;;;;;;;13.60;12.17;;;26.50;99.90;26.20;96638.00;;;;5106831;28;20195;-64
2021/07/09 07:53:01;;;;;;;15.30;12.17;;;26.50;99.90;26.30;96640.00;;;;5106314;28;20227;-62
2021/07/09 07:55:51;;;;;;;12.23;11.13;;;26.50;99.90;26.30;96638.00;;;;5106835;28;20608;-64
2021/07/09 07:58:40;;;;;;;12.33;11.03;;;26.50;99.90;26.40;96633.00;;;;5107739;28;20208;-64
2021/07/09 08:01:30;;;;;;;13.20;11.80;;;26.50;99.90;26.30;96638.00;;;;5107348;28;20223;-63
2021/07/09 08:04:19;;;;;;;13.40;11.00;;;26.50;99.90;26.50;96641.00;;;;5105135;28;20252;-63
2021/07/09 08:07:10;;;;;;;12.83;11.70;;;26.60;99.90;26.90;96640.00;;;;5104414;28;20227;-63
2021/07/09 08:09:59;;;;;;;11.23;10.13;;;26.90;99.90;27.20;96635.00;;;;5106281;28;20238;-64
2021/07/09 08:12:49;;;;;;;11.93;10.70;;;26.80;99.90;27.40;96637.00;;;;5105139;28;20590;-62
2021/07/09 08:15:38;;;;;;;10.60;9.70;;;27.00;99.90;27.30;96639.00;;;;5106042;28;20578;-64
2021/07/09 08:18:27;;;;;;;11.67;10.63;;;27.10;99.90;27.60;96644.00;;;;5106810;28;20213;-63
2021/07/09 08:21:16;;;;;;;9.00;8.00;;;27.30;99.90;27.80;96645.00;;;;5097831;28;20568;-62
2021/07/09 08:24:05;;;;;;;8.43;7.63;;;27.50;99.90;28.00;96659.00;;;;5102829;28;20609;-63
2021/07/09 08:26:54;;;;;;;9.30;8.07;;;27.60;99.90;28.10;96644.00;;;;5105539;28;20915;-64
2021/07/09 08:29:46;;;;;;;8.33;7.47;;;27.80;99.90;28.40;96642.00;;;;5096818;28;20193;-62
2021/07/09 08:32:36;;;;;;;8.27;7.50;;;28.00;99.90;28.60;96644.00;;;;5096108;28;20211;-63
2021/07/09 08:35:25;;;;;;;8.10;7.30;;;28.20;99.90;28.80;96646.00;;;;5101823;28;20227;-64
2021/07/09 08:38:14;;;;;;;8.30;7.50;;;28.40;99.90;29.00;96640.00;;;;5104300;28;20248;-64
2021/07/09 08:41:03;;;;;;;8.13;6.97;;;28.60;99.90;28.10;96642.00;;;;5105183;28;20202;-64
2021/07/09 08:43:52;;;;;;;7.97;6.50;;;28.70;99.90;28.40;96634.00;;;;5107241;28;20206;-63
2021/07/09 08:46:43;;;;;;;8.20;7.33;;;28.50;99.90;29.10;96625.00;;;;5106977;28;20580;-63
2021/07/09 08:49:33;;;;;;;7.27;6.53;;;28.70;99.90;29.10;96630.00;;;;5105085;28;20200;-64
2021/07/09 08:52:22;;;;;;;8.90;8.03;;;28.80;99.90;29.30;96614.00;;;;5106708;28;20234;-65
2021/07/09 08:55:13;;;;;;;8.90;7.27;;;28.90;99.30;28.50;96615.00;;;;5097370;27;20207;-62
2021/07/09 08:58:02;;;;;;;9.17;7.43;;;28.90;99.20;28.40;96642.00;;;;5096853;28;20199;-64
2021/07/09 09:01:02;;;;;;;10.33;7.60;;;28.80;99.70;27.90;96633.00;;;;5098888;28;20675;-62
2021/07/09 09:04:04;;;;;;;8.53;6.90;;;28.60;99.40;28.00;96643.00;;;;5093251;28;20701;-63
2021/07/09 09:07:05;;;;;;;8.07;7.30;;;28.30;99.90;28.10;96655.00;;;;5095062;28;20230;-63
2021/07/09 09:09:54;;;;;;;9.93;7.87;;;28.30;99.90;28.30;96627.00;;;;5097633;28;20225;-64
2021/07/09 09:13:06;;;;;;;7.93;7.13;;;28.50;99.90;28.60;96671.00;;;;5095753;28;20599;-63
2021/07/09 09:16:04;;;;;;;8.13;6.80;;;28.60;99.90;27.90;96676.00;;;;5100016;28;20713;-62
2021/07/09 09:18:57;;;;;;;8.57;5.67;;;28.50;98.20;27.40;96686.00;;;;5098951;28;20208;-61
2021/07/09 09:21:47;;;;;;;4.53;4.13;;;28.20;97.00;27.10;96694.00;;;;5078658;28;20225;-64
2021/07/09 09:24:35;;;;;;;6.93;4.93;;;27.90;95.40;27.10;96697.00;;;;5099441;28;20211;-64
2021/07/09 09:27:24;;;;;;;4.87;4.13;;;27.60;96.20;26.60;96711.00;;;;5097026;28;20214;-62
2021/07/09 09:30:16;;;;;;;4.43;3.47;;;27.30;94.70;25.80;96718.00;;;;5097883;28;20343;-62
2021/07/09 09:33:08;;;;;;;4.77;4.37;;;26.90;93.80;25.40;96735.00;;;;5093629;28;20250;-61
2021/07/09 09:35:58;;;;;;;5.17;2.77;;;26.40;94.30;24.40;96750.00;;;;5096761;28;20258;-63
2021/07/09 09:38:51;;;;;;;3.67;3.10;;;25.50;93.70;24.50;96754.00;;;;5099154;28;20330;-66
2021/07/09 09:41:39;;;;;;;5.33;3.03;;;25.00;94.70;25.00;96761.00;;;;5097253;28;20219;-64
2021/07/09 09:44:32;;;;;;;4.63;2.70;;;25.00;95.70;25.10;96734.00;;;;5097419;28;20210;-65
2021/07/09 09:47:23;;;;;;;4.23;2.60;;;25.10;95.70;25.10;96735.00;;;;5095277;28;20307;-64
2021/07/09 09:50:19;;;;;;;2.83;2.47;;;25.10;94.20;25.30;96743.00;;;;5097997;28;20204;-65
2021/07/09 09:53:09;;;;;;;5.67;2.73;;;25.20;94.60;26.20;96711.00;;;;5100137;28;20289;-64
2021/07/09 09:56:06;;;;;;;2.77;2.50;;;25.40;94.80;26.70;96765.00;;;;5099235;28;20218;-65
2021/07/09 09:59:16;;;;;;;6.33;2.37;;;25.80;94.20;26.00;96758.00;;;;5099183;28;20203;-65
2021/07/09 10:02:06;;;;;;;2.10;2.00;;;25.90;91.60;26.90;96751.00;;;;5099065;28;20215;-64
2021/07/09 10:04:55;;;;;;;2.37;2.17;;;26.20;92.90;27.00;96726.00;;;;5101680;28;20294;-64
2021/07/09 10:07:46;;;;;;;3.53;2.47;;;26.60;91.10;27.90;96770.00;;;;5098153;28;20218;-64
2021/07/09 10:10:38;;;;;;;3.47;1.97;;;27.00;91.30;28.00;96723.00;;;;5097461;28;20196;-65
2021/07/09 10:13:28;;;;;;;2.63;1.80;;;27.30;90.80;29.00;96722.00;;;;5097871;28;20218;-64
2021/07/09 10:16:18;;;;;;;3.17;2.67;;;27.70;90.10;28.90;96720.00;;;;5097533;28;20603;-64
2021/07/09 10:19:10;;;;;;;1.93;1.60;;;28.20;83.30;28.10;96733.00;;;;5102788;28;20253;-63
2021/07/09 10:21:59;;;;;;;1.90;1.80;;;28.30;81.60;29.10;96724.00;;;;5087042;28;20237;-64
2021/07/09 10:24:52;;;;;;;1.60;1.50;;;28.40;81.30;29.20;96725.00;;;;5097565;28;20198;-64
2021/07/09 10:27:43;;;;;;;1.03;1.00;;;28.70;79.80;28.80;96730.00;;;;5095279;28;20226;-64
2021/07/09 10:30:38;;;;;;;2.77;1.50;;;28.90;76.60;28.30;96759.00;;;;5085943;28;20207;-64
2021/07/09 10:33:33;;;;;;;2.27;1.43;;;28.70;78.10;28.60;96739.00;;;;5074244;28;20231;-64
2021/07/09 10:36:29;;;;;;;1.87;1.27;;;28.70;78.60;28.40;96744.00;;;;5094872;28;20203;-62
2021/07/09 10:39:45;;;;;;;3.23;1.30;;;28.70;77.60;28.00;96733.00;;;;5097175;28;20209;-63
2021/07/09 10:42:40;;;;;;;1.70;1.20;;;28.40;77.90;28.10;96758.00;;;;5091297;28;20224;-63
2021/07/09 10:45:31;;;;;;;2.10;1.30;;;28.40;78.90;27.70;96753.00;;;;5098491;28;20220;-64
2021/07/09 10:48:20;;;;;;;1.77;1.53;;;28.10;78.50;28.00;96742.00;;;;5092396;28;20236;-64
2021/07/09 10:51:12;;;;;;;1.23;1.13;;;28.10;80.10;28.60;96724.00;;;;5090505;28;20202;-64
2021/07/09 10:54:26;;;;;;;1.37;1.10;;;28.20;80.50;29.50;96729.00;;;;5099508;28;20253;-65
2021/07/09 10:57:20;;;;;;;2.73;1.37;;;28.60;79.10;30.10;96730.00;;;;5088347;28;20193;-65
2021/07/09 11:00:23;;;;;;;1.23;1.13;;;29.10;78.20;30.10;96735.00;;;;5080811;28;20192;-63
2021/07/09 11:03:23;;;;;;;1.27;1.10;;;29.50;75.30;30.40;96752.00;;;;5084500;28;20233;-65
2021/07/09 11:06:20;;;;;;;2.50;1.30;;;29.70;75.30;29.50;96746.00;;;;5091035;28;20217;-64
2021/07/09 11:09:14;;;;;;;1.20;1.07;;;29.70;71.90;30.50;96743.00;;;;5095642;28;20298;-65
2021/07/09 11:12:09;;;;;;;2.60;0.83;;;29.90;72.80;30.30;96757.00;;;;5087416;28;20225;-66
2021/07/09 11:15:04;;;;;;;3.90;1.53;;;30.00;71.20;29.90;96755.00;;;;5087938;28;20211;-62
2021/07/09 11:18:13;;;;;;;1.83;1.00;;;30.10;68.60;29.30;96770.00;;;;5087614;28;20207;-65
2021/07/09 11:21:09;;;;;;;1.37;1.10;;;29.90;70.00;29.70;96765.00;;;;5080066;28;20596;-64
2021/07/09 11:24:06;;;;;;;1.20;0.73;;;29.80;69.40;30.70;96774.00;;;;5089663;28;20201;-63
2021/07/09 11:27:03;;;;;;;1.10;0.73;;;30.00;70.70;30.10;96779.00;;;;5100921;28;20207;-64
2021/07/09 11:29:59;;;;;;;3.40;0.93;;;30.00;67.00;30.60;96773.00;;;;5085821;28;20220;-65
2021/07/09 11:32:55;;;;;;;1.40;0.77;;;30.20;67.50;30.80;96775.00;;;;5090651;28;20893;-63
2021/07/09 11:35:46;;;;;;;2.33;0.85;;;30.30;66.80;30.90;96782.00;;;;5098420;28;20553;-63
2021/07/09 11:38:34;;;;;;;0.70;0.70;;;30.40;65.50;30.60;96792.00;;;;5093473;28;20211;-65
2021/07/09 11:41:23;;;;;;;0.70;0.70;;;30.50;64.30;30.30;96795.00;;;;5092422;28;20201;-63
2021/07/09 11:44:12;;;;;;;0.80;0.80;;;30.30;63.80;31.60;96791.00;;;;5097590;28;20201;-64
2021/07/09 11:47:05;;;;;;;0.80;0.80;;;30.60;66.00;30.50;96796.00;;;;5091929;28;20198;-63
2021/07/09 11:49:55;;;;;;;0.63;0.60;;;30.70;62.70;30.70;96787.00;;;;5091022;28;20202;-64
2021/07/09 11:52:51;;;;;;;0.82;0.80;;;30.70;62.60;30.70;96785.00;;;;5098009;28;20604;-63
2021/07/09 11:55:40;;;;;;;1.92;0.80;;;30.70;62.00;31.00;96787.00;;;;5080183;28;20661;-64
2021/07/09 11:58:29;;;;;;;1.15;0.60;;;30.80;62.70;30.30;96787.00;;;;5082079;28;20194;-64
2021/07/09 12:01:18;;;;;;;0.90;0.73;;;30.80;60.50;30.60;96823.00;;;;5081300;28;20217;-64
2021/07/09 12:04:06;;;;;;;1.20;0.55;;;30.60;60.40;31.20;96765.00;;;;5086398;28;20194;-64
2021/07/09 12:07:24;;;;;;;0.77;0.77;;;30.80;62.20;30.90;96859.00;;;;5086466;28;20194;-64
2021/07/09 12:10:17;;;;;;;2.22;0.63;;;30.80;62.40;29.40;96879.00;;;;5088815;28;20214;-64
2021/07/09 12:13:07;;;;;;;0.80;0.80;;;30.20;61.50;28.00;96865.00;;;;5094226;28;20224;-63
2021/07/09 12:16:06;;;;;;;1.63;0.68;;;29.60;60.40;27.10;96862.00;;;;5098377;28;20263;-62
2021/07/09 12:18:54;;;;;;;0.52;0.40;;;28.80;61.90;28.60;96790.00;;;;5086054;28;20255;-64
2021/07/09 12:21:53;;;;;;;0.60;0.50;;;28.60;64.50;28.40;96858.00;;;;5084748;28;20221;-64
2021/07/09 12:24:51;;;;;;;0.80;0.60;;;28.70;64.40;27.70;96871.00;;;;5084375;28;20201;-62
2021/07/09 12:27:42;;;;;;;0.50;0.50;;;28.30;64.50;27.50;96864.00;;;;5094841;28;20195;-64